createdAt,value
2018-06-19T00:00:41.828Z,99.90
2018-06-19T00:03:09.884Z,99.90
2018-06-19T00:05:37.952Z,99.90
2018-06-19T00:08:06.005Z,99.90
2018-06-19T00:13:01.889Z,99.90
2018-06-19T00:15:30.308Z,99.90
2018-06-19T00:18:02.260Z,99.90
2018-06-19T00:20:30.309Z,99.90
2018-06-19T00:25:26.207Z,99.90
2018-06-19T00:27:54.268Z,99.90
2018-06-19T00:30:22.301Z,99.90
2018-06-19T00:32:50.360Z,99.90
2018-06-19T00:35:18.428Z,99.90
2018-06-19T00:37:46.480Z,99.90
2018-06-19T00:40:14.513Z,99.90
2018-06-19T00:42:42.566Z,99.90
2018-06-19T00:45:10.608Z,99.90
2018-06-19T00:47:38.669Z,99.90
2018-06-19T00:50:06.701Z,99.90
2018-06-19T00:52:34.743Z,99.90
2018-06-19T00:55:02.777Z,99.90
2018-06-19T00:57:30.832Z,99.90
2018-06-19T00:59:58.873Z,99.90
2018-06-19T01:02:26.924Z,99.90
2018-06-19T01:07:23.108Z,99.90
2018-06-19T01:09:51.133Z,99.90
2018-06-19T01:12:19.180Z,99.90
2018-06-19T01:14:47.212Z,99.90
2018-06-19T01:17:15.270Z,99.90
2018-06-19T01:19:43.307Z,99.90
2018-06-19T01:22:11.336Z,99.90
2018-06-19T01:24:39.389Z,99.90
2018-06-19T01:27:07.428Z,99.90
2018-06-19T01:29:35.464Z,99.90
2018-06-19T01:32:03.512Z,99.90
2018-06-19T01:34:31.561Z,99.90
2018-06-19T01:36:59.613Z,99.90
2018-06-19T01:39:27.657Z,99.90
2018-06-19T01:41:55.709Z,99.90
2018-06-19T01:44:23.757Z,99.90
2018-06-19T01:46:51.788Z,99.90
2018-06-19T01:49:19.833Z,99.90
2018-06-19T01:54:15.717Z,99.90
2018-06-19T01:56:43.763Z,99.90
2018-06-19T01:59:11.809Z,99.90
2018-06-19T02:01:39.869Z,99.90
2018-06-19T02:04:14.485Z,99.90
2018-06-19T02:06:42.524Z,99.90
2018-06-19T02:09:10.568Z,99.90
2018-06-19T02:11:38.600Z,99.90
2018-06-19T02:14:06.648Z,99.90
2018-06-19T02:16:34.680Z,99.90
2018-06-19T02:21:30.705Z,99.90
2018-06-19T02:23:58.756Z,99.90
2018-06-19T02:26:26.810Z,99.90
2018-06-19T02:28:55.173Z,99.90
2018-06-19T02:31:23.212Z,99.90
2018-06-19T02:33:51.267Z,99.90
2018-06-19T02:36:19.312Z,99.90
2018-06-19T02:38:47.369Z,99.90
2018-06-19T02:41:15.404Z,99.90
2018-06-19T02:43:43.461Z,99.90
2018-06-19T02:46:11.506Z,99.90
2018-06-19T02:48:39.547Z,99.90
2018-06-19T02:51:07.581Z,99.90
2018-06-19T02:53:35.630Z,99.90
2018-06-19T02:56:03.676Z,99.90
2018-06-19T02:58:31.717Z,99.90
2018-06-19T03:00:59.800Z,99.90
2018-06-19T03:03:27.846Z,99.90
2018-06-19T03:05:55.890Z,99.90
2018-06-19T03:10:51.772Z,99.90
2018-06-19T03:13:19.900Z,99.90
2018-06-19T03:15:47.949Z,99.90
2018-06-19T03:18:16.027Z,99.90
2018-06-19T03:20:44.065Z,99.90
2018-06-19T03:23:12.317Z,99.90
2018-06-19T03:25:40.357Z,99.90
2018-06-19T03:28:08.396Z,99.90
2018-06-19T03:30:36.457Z,99.90
2018-06-19T03:33:04.545Z,99.90
2018-06-19T03:35:32.591Z,99.90
2018-06-19T03:38:00.637Z,99.90
2018-06-19T03:40:28.720Z,99.90
2018-06-19T03:42:56.785Z,99.90
2018-06-19T03:45:24.865Z,99.90
2018-06-19T03:47:52.925Z,99.90
2018-06-19T03:50:21.141Z,99.90
2018-06-19T03:52:49.312Z,99.90
2018-06-19T03:55:17.364Z,99.90
2018-06-19T03:57:45.421Z,99.90
2018-06-19T04:00:13.493Z,99.90
2018-06-19T04:02:41.553Z,99.90
2018-06-19T04:05:09.613Z,99.90
2018-06-19T04:07:37.677Z,99.90
2018-06-19T04:10:05.746Z,99.90
2018-06-19T04:12:33.832Z,99.90
2018-06-19T04:15:01.917Z,99.90
2018-06-19T04:17:30.024Z,99.90
2018-06-19T04:19:58.873Z,99.90
2018-06-19T04:22:28.500Z,99.90
2018-06-19T04:24:56.915Z,99.90
2018-06-19T04:27:24.989Z,99.90
2018-06-19T04:29:53.042Z,99.90
2018-06-19T04:32:21.108Z,99.90
2018-06-19T04:37:17.029Z,99.90
2018-06-19T04:39:51.668Z,99.90
2018-06-19T04:42:19.749Z,99.90
2018-06-19T04:44:47.830Z,99.90
2018-06-19T04:47:15.892Z,99.90
2018-06-19T04:49:44.004Z,99.90
2018-06-19T04:52:12.029Z,99.90
2018-06-19T04:54:40.098Z,99.90
2018-06-19T04:57:08.165Z,99.90
2018-06-19T04:59:36.229Z,99.90
2018-06-19T05:02:04.319Z,99.90
2018-06-19T05:04:32.373Z,99.90
2018-06-19T05:07:00.449Z,99.90
2018-06-19T05:09:28.514Z,99.90
2018-06-19T05:11:56.592Z,99.90
2018-06-19T05:14:24.658Z,99.90
2018-06-19T05:16:52.717Z,99.90
2018-06-19T05:19:20.790Z,99.90
2018-06-19T05:21:48.844Z,99.90
2018-06-19T05:24:16.929Z,99.90
2018-06-19T05:26:44.980Z,99.90
2018-06-19T05:29:13.049Z,99.90
2018-06-19T05:31:41.121Z,99.90
2018-06-19T05:34:09.199Z,99.90
2018-06-19T05:36:37.269Z,99.90
2018-06-19T05:39:08.161Z,99.90
2018-06-19T05:41:36.229Z,99.90
2018-06-19T05:44:04.625Z,99.90
2018-06-19T05:46:32.692Z,99.90
2018-06-19T05:49:00.763Z,99.90
2018-06-19T05:51:28.838Z,99.90
2018-06-19T05:53:56.925Z,99.90
2018-06-19T05:56:24.999Z,99.90
2018-06-19T05:58:53.229Z,99.90
2018-06-19T06:01:21.432Z,99.90
2018-06-19T06:03:49.448Z,99.90
2018-06-19T06:06:17.513Z,99.90
2018-06-19T06:08:45.737Z,99.90
2018-06-19T06:11:13.838Z,99.90
2018-06-19T06:13:41.880Z,99.90
2018-06-19T06:16:09.940Z,99.90
2018-06-19T06:18:38.017Z,99.90
2018-06-19T06:21:06.169Z,99.90
2018-06-19T06:23:34.245Z,99.90
2018-06-19T06:26:02.304Z,99.90
2018-06-19T06:30:58.228Z,99.90
2018-06-19T06:33:26.297Z,99.90
2018-06-19T06:35:54.340Z,98.60
2018-06-19T06:38:22.405Z,96.50
2018-06-19T06:40:50.445Z,94.40
2018-06-19T06:43:18.492Z,94.20
2018-06-19T06:45:46.546Z,93.30
2018-06-19T06:48:14.584Z,93.00
2018-06-19T06:50:43.449Z,91.30
2018-06-19T06:53:11.496Z,90.30
2018-06-19T06:55:39.550Z,87.20
2018-06-19T06:58:07.588Z,84.60
2018-06-19T07:00:35.644Z,81.90
2018-06-19T07:03:03.695Z,75.00
2018-06-19T07:05:31.752Z,78.10
2018-06-19T07:07:59.801Z,78.50
2018-06-19T07:10:27.856Z,78.40
2018-06-19T07:12:55.901Z,77.60
2018-06-19T07:15:23.996Z,78.10
2018-06-19T07:17:52.037Z,76.80
2018-06-19T07:20:20.080Z,79.50
2018-06-19T07:22:48.825Z,79.20
2018-06-19T07:25:16.881Z,79.50
2018-06-19T07:27:44.929Z,81.10
2018-06-19T07:30:13.280Z,79.90
2018-06-19T07:32:41.329Z,81.90
2018-06-19T07:35:09.393Z,85.10
2018-06-19T07:37:37.445Z,83.50
2018-06-19T07:40:05.697Z,84.10
2018-06-19T07:42:33.744Z,85.00
2018-06-19T07:45:01.802Z,84.90
2018-06-19T07:47:29.856Z,85.30
2018-06-19T07:49:57.917Z,87.00
2018-06-19T07:52:25.985Z,87.70
2018-06-19T07:54:54.518Z,89.00
2018-06-19T07:57:22.601Z,88.90
2018-06-19T07:59:50.625Z,87.60
2018-06-19T08:02:18.677Z,88.80
2018-06-19T08:04:46.736Z,88.90
2018-06-19T08:07:14.789Z,87.90
2018-06-19T08:09:42.870Z,89.00
2018-06-19T08:12:10.922Z,87.90
2018-06-19T08:14:38.976Z,90.10
2018-06-19T08:17:07.029Z,89.40
2018-06-19T08:19:35.088Z,91.20
2018-06-19T08:22:03.266Z,89.80
2018-06-19T08:24:31.329Z,87.30
2018-06-19T08:26:59.373Z,86.50
2018-06-19T08:29:27.413Z,85.50
2018-06-19T08:31:55.456Z,87.40
2018-06-19T08:34:23.497Z,87.00
2018-06-19T08:36:51.621Z,85.90
2018-06-19T08:41:47.590Z,86.60
2018-06-19T08:44:15.601Z,86.70
2018-06-19T08:46:43.681Z,85.90
2018-06-19T08:49:12.604Z,84.20
2018-06-19T08:51:40.670Z,87.40
2018-06-19T08:54:08.973Z,87.50
2018-06-19T08:56:37.041Z,85.80
2018-06-19T08:59:05.110Z,85.20
2018-06-19T09:01:33.952Z,84.20
2018-06-19T09:04:02.246Z,85.40
2018-06-19T09:06:30.301Z,84.70
2018-06-19T09:08:58.376Z,87.00
2018-06-19T09:11:26.441Z,86.40
2018-06-19T09:13:54.511Z,88.10
2018-06-19T09:16:22.561Z,88.10
2018-06-19T09:18:50.633Z,89.50
2018-06-19T09:21:18.703Z,88.60
2018-06-19T09:23:48.737Z,88.10
2018-06-19T09:26:16.798Z,89.10
2018-06-19T09:28:44.865Z,89.10
2018-06-19T09:31:12.970Z,89.30
2018-06-19T09:33:40.999Z,89.80
2018-06-19T09:36:09.108Z,90.60
2018-06-19T09:38:37.185Z,90.70
2018-06-19T09:41:05.250Z,90.50
2018-06-19T09:43:33.308Z,90.60
2018-06-19T09:46:01.380Z,90.80
2018-06-19T09:48:29.457Z,90.50
2018-06-19T09:50:57.527Z,91.30
2018-06-19T09:53:25.581Z,91.90
2018-06-19T09:55:53.650Z,92.10
2018-06-19T09:58:21.974Z,92.10
2018-06-19T10:00:50.050Z,92.30
2018-06-19T10:03:18.293Z,93.20
2018-06-19T10:05:46.398Z,92.80
2018-06-19T10:08:14.428Z,92.90
2018-06-19T10:10:42.517Z,92.80
2018-06-19T10:13:10.586Z,93.10
2018-06-19T10:15:38.645Z,93.00
2018-06-19T10:18:06.696Z,93.30
2018-06-19T10:20:34.761Z,92.90
2018-06-19T10:23:02.825Z,92.50
2018-06-19T10:25:30.901Z,93.20
2018-06-19T10:27:58.960Z,93.20
2018-06-19T10:30:27.029Z,92.70
2018-06-19T10:32:55.097Z,92.10
2018-06-19T10:35:23.148Z,92.60
2018-06-19T10:37:51.186Z,92.10
2018-06-19T10:40:19.239Z,92.60
2018-06-19T10:42:47.265Z,92.10
2018-06-19T10:45:15.327Z,92.50
2018-06-19T10:47:43.368Z,92.30
2018-06-19T10:50:11.413Z,91.70
2018-06-19T10:52:39.470Z,91.30
2018-06-19T10:55:07.746Z,91.20
2018-06-19T10:57:35.786Z,91.00
2018-06-19T11:00:03.865Z,90.90
2018-06-19T11:02:31.913Z,91.30
2018-06-19T11:04:59.958Z,90.10
2018-06-19T11:07:30.384Z,90.10
2018-06-19T11:10:00.293Z,90.70
2018-06-19T11:12:28.796Z,90.30
2018-06-19T11:14:56.824Z,91.00
2018-06-19T11:19:52.821Z,90.50
2018-06-19T11:22:20.881Z,90.10
2018-06-19T11:24:48.952Z,90.80
2018-06-19T11:29:45.065Z,90.20
2018-06-19T11:32:13.780Z,90.20
2018-06-19T11:34:42.160Z,84.10
2018-06-19T11:37:10.264Z,85.80
2018-06-19T11:39:38.337Z,81.50
2018-06-19T11:42:06.682Z,81.80
2018-06-19T11:44:34.920Z,82.10
2018-06-19T11:47:02.981Z,82.10
2018-06-19T11:49:31.484Z,81.90
2018-06-19T11:51:59.570Z,82.10
2018-06-19T11:54:27.678Z,83.20
2018-06-19T11:56:55.833Z,79.90
2018-06-19T11:59:23.829Z,79.90
2018-06-19T12:01:51.995Z,81.70
2018-06-19T12:04:19.984Z,83.40
2018-06-19T12:06:48.085Z,82.70
2018-06-19T12:09:16.122Z,83.90
2018-06-19T12:11:44.193Z,81.20
2018-06-19T12:14:12.760Z,82.00
2018-06-19T12:16:40.821Z,79.60
2018-06-19T12:19:10.292Z,82.10
2018-06-19T12:21:38.352Z,79.80
2018-06-19T12:24:06.481Z,79.90
2018-06-19T12:26:34.550Z,79.20
2018-06-19T12:29:02.629Z,80.80
2018-06-19T12:31:30.685Z,79.30
2018-06-19T12:33:58.754Z,79.20
2018-06-19T12:36:26.842Z,80.80
2018-06-19T12:38:54.900Z,82.10
2018-06-19T12:41:28.329Z,81.40
2018-06-19T12:43:56.405Z,81.20
2018-06-19T12:46:24.473Z,81.40
2018-06-19T12:48:52.553Z,79.20
2018-06-19T12:55:30.361Z,79.90
2018-06-19T12:57:58.432Z,79.90
2018-06-19T13:00:26.498Z,79.90
2018-06-19T13:03:06.054Z,79.80
2018-06-19T13:05:45.662Z,80.90
2018-06-19T13:08:13.725Z,79.20
2018-06-19T13:10:41.794Z,80.70
2018-06-19T13:13:23.297Z,82.70
2018-06-19T13:15:52.515Z,80.90
2018-06-19T13:18:33.292Z,78.90
2018-06-19T13:21:01.401Z,79.20
2018-06-19T13:23:29.673Z,81.50
2018-06-19T13:25:57.857Z,81.10
2018-06-19T13:28:37.716Z,78.50
2018-06-19T13:31:17.336Z,79.30
2018-06-19T13:33:45.404Z,78.50
2018-06-19T13:36:13.490Z,77.90
2018-06-19T13:41:26.208Z,76.20
2018-06-19T13:44:08.520Z,76.00
2018-06-19T13:46:36.575Z,75.90
2018-06-19T13:49:04.648Z,77.30
2018-06-19T13:54:00.549Z,78.00
2018-06-19T13:57:43.101Z,79.10
2018-06-19T14:00:13.112Z,80.50
2018-06-19T14:02:41.174Z,79.80
2018-06-19T14:05:09.901Z,78.90
2018-06-19T14:07:48.966Z,79.40
2018-06-19T14:10:29.018Z,80.90
2018-06-19T14:12:59.673Z,81.60
2018-06-19T14:15:28.765Z,80.10
2018-06-19T14:17:57.065Z,80.00
2018-06-19T14:20:25.117Z,81.20
2018-06-19T14:22:53.184Z,81.00
2018-06-19T14:27:49.625Z,81.60
2018-06-19T14:30:17.665Z,81.90
2018-06-19T14:32:46.288Z,81.70
2018-06-19T14:35:14.468Z,80.20
2018-06-19T14:37:42.760Z,81.10
2018-06-19T14:40:11.145Z,81.70
2018-06-19T14:42:39.197Z,81.40
2018-06-19T14:45:08.238Z,81.90
2018-06-19T14:47:36.317Z,82.20
2018-06-19T14:50:04.680Z,82.70
2018-06-19T14:52:32.748Z,82.30
2018-06-19T14:55:00.797Z,82.00
2018-06-19T14:57:28.980Z,80.90
2018-06-19T14:59:57.045Z,80.30
2018-06-19T15:02:25.121Z,79.10
2018-06-19T15:04:53.173Z,80.30
2018-06-19T15:07:21.213Z,80.60
2018-06-19T15:09:49.256Z,81.20
2018-06-19T15:12:17.292Z,82.50
2018-06-19T15:14:45.341Z,81.50
2018-06-19T15:17:13.375Z,80.70
2018-06-19T15:19:41.532Z,81.10
2018-06-19T15:22:09.573Z,81.00
2018-06-19T15:24:37.616Z,81.60
2018-06-19T15:27:05.661Z,83.30
2018-06-19T15:29:33.747Z,83.80
2018-06-19T15:32:01.753Z,83.20
2018-06-19T15:34:29.816Z,84.10
2018-06-19T15:36:57.908Z,84.40
2018-06-19T15:39:25.968Z,83.40
2018-06-19T15:41:54.030Z,83.00
2018-06-19T15:44:22.156Z,84.00
2018-06-19T15:49:18.040Z,85.00
2018-06-19T15:51:46.093Z,84.50
2018-06-19T15:54:14.169Z,84.70
2018-06-19T15:56:42.229Z,86.20
2018-06-19T15:59:10.308Z,86.40
2018-06-19T16:01:38.369Z,86.40
2018-06-19T16:04:06.477Z,86.60
2018-06-19T16:06:34.575Z,87.80
2018-06-19T16:09:02.596Z,88.40
2018-06-19T16:11:30.657Z,88.30
2018-06-19T16:13:58.717Z,87.90
2018-06-19T16:16:33.373Z,87.00
2018-06-19T16:19:01.701Z,87.10
2018-06-19T16:21:29.766Z,87.00
2018-06-19T16:23:57.833Z,87.30
2018-06-19T16:26:25.892Z,89.00
2018-06-19T16:28:53.960Z,89.60
2018-06-19T16:31:22.052Z,88.70
2018-06-19T16:33:50.218Z,89.00
2018-06-19T16:36:18.326Z,90.10
2018-06-19T16:38:46.412Z,89.50
2018-06-19T16:41:14.465Z,88.90
2018-06-19T16:43:42.525Z,89.10
2018-06-19T16:46:10.601Z,88.50
2018-06-19T16:48:38.654Z,89.50
2018-06-19T16:51:06.724Z,89.50
2018-06-19T16:53:34.842Z,89.90
2018-06-19T16:56:02.884Z,90.20
2018-06-19T16:58:30.944Z,88.50
2018-06-19T17:00:59.021Z,88.90
2018-06-19T17:03:27.084Z,88.90
2018-06-19T17:05:55.144Z,88.40
2018-06-19T17:08:23.204Z,88.60
2018-06-19T17:10:51.265Z,88.40
2018-06-19T17:13:19.328Z,88.90
2018-06-19T17:15:47.384Z,89.70
2018-06-19T17:18:15.449Z,89.00
2018-06-19T17:20:43.504Z,88.90
2018-06-19T17:23:11.573Z,88.60
2018-06-19T17:25:39.633Z,90.20
2018-06-19T17:28:07.705Z,90.00
2018-06-19T17:30:35.813Z,90.30
2018-06-19T17:33:03.872Z,90.40
2018-06-19T17:35:31.948Z,90.40
2018-06-19T17:37:59.985Z,90.80
2018-06-19T17:40:28.033Z,90.60
2018-06-19T17:42:56.099Z,90.70
2018-06-19T17:45:24.133Z,90.70
2018-06-19T17:47:52.205Z,90.70
2018-06-19T17:52:48.163Z,91.30
2018-06-19T17:57:44.060Z,91.00
2018-06-19T18:00:12.097Z,91.40
2018-06-19T18:02:40.145Z,91.40
2018-06-19T18:05:08.176Z,91.70
2018-06-19T18:07:36.226Z,92.00
2018-06-19T18:10:04.276Z,92.30
2018-06-19T18:12:32.333Z,92.40
2018-06-19T18:15:00.364Z,92.30
2018-06-19T18:17:28.401Z,92.80
2018-06-19T18:19:56.449Z,92.70
2018-06-19T18:22:24.496Z,93.30
2018-06-19T18:24:52.533Z,94.00
2018-06-19T18:27:20.568Z,93.80
2018-06-19T18:29:48.616Z,93.70
2018-06-19T18:32:16.649Z,94.00
2018-06-19T18:34:44.685Z,94.10
2018-06-19T18:37:12.740Z,94.30
2018-06-19T18:39:40.780Z,94.50
2018-06-19T18:42:08.820Z,94.50
2018-06-19T18:44:36.864Z,95.00
2018-06-19T18:47:05.088Z,95.90
2018-06-19T18:49:33.128Z,96.60
2018-06-19T18:52:01.164Z,97.20
2018-06-19T18:54:29.229Z,97.60
2018-06-19T18:56:57.268Z,98.10
2018-06-19T18:59:25.308Z,98.20
2018-06-19T19:01:53.349Z,98.40
2018-06-19T19:04:21.393Z,98.60
2018-06-19T19:06:49.438Z,98.60
2018-06-19T19:09:17.485Z,98.90
2018-06-19T19:11:45.516Z,99.00
2018-06-19T19:14:13.566Z,99.00
2018-06-19T19:16:47.065Z,98.90
2018-06-19T19:19:18.340Z,99.00
2018-06-19T19:21:46.495Z,99.00
2018-06-19T19:24:14.548Z,99.00
2018-06-19T19:26:47.865Z,99.00
2018-06-19T19:29:21.347Z,99.00
2018-06-19T19:31:49.385Z,99.50
2018-06-19T19:34:17.416Z,99.50
2018-06-19T19:36:50.814Z,99.70
2018-06-19T19:39:23.196Z,99.80
2018-06-19T19:41:51.386Z,99.00
2018-06-19T19:44:19.445Z,98.70
2018-06-19T19:46:53.062Z,98.80
2018-06-19T19:49:21.112Z,99.50
2018-06-19T19:51:49.189Z,99.90
2018-06-19T19:54:17.257Z,99.20
2018-06-19T19:56:50.681Z,98.90
2018-06-19T19:59:18.736Z,99.10
2018-06-19T20:01:46.820Z,99.40
2018-06-19T20:04:14.863Z,99.90
2018-06-19T20:06:42.928Z,99.70
2018-06-19T20:09:10.980Z,99.40
2018-06-19T20:11:39.036Z,99.50
2018-06-19T20:14:07.241Z,99.80
2018-06-19T20:16:35.301Z,99.90
2018-06-19T20:19:03.356Z,99.90
2018-06-19T20:21:31.420Z,99.90
2018-06-19T20:23:59.479Z,99.90
2018-06-19T20:26:27.536Z,99.90
2018-06-19T20:28:55.593Z,99.90
2018-06-19T20:31:23.672Z,99.90
2018-06-19T20:33:51.729Z,99.90
2018-06-19T20:36:20.159Z,99.90
2018-06-19T20:38:48.218Z,99.90
2018-06-19T20:41:16.296Z,99.90
2018-06-19T20:43:44.356Z,99.90
2018-06-19T20:46:12.428Z,99.90
2018-06-19T20:48:40.492Z,99.90
2018-06-19T20:51:08.618Z,99.90
2018-06-19T20:53:36.680Z,99.90
2018-06-19T20:56:04.744Z,99.90
2018-06-19T20:58:39.167Z,99.90
2018-06-19T21:03:35.105Z,99.90
2018-06-19T21:06:03.181Z,99.90
2018-06-19T21:08:40.372Z,99.90
2018-06-19T21:11:09.574Z,99.90
2018-06-19T21:13:37.887Z,99.90
2018-06-19T21:16:05.981Z,99.90
2018-06-19T21:18:34.064Z,99.90
2018-06-19T21:21:02.128Z,99.90
2018-06-19T21:23:30.405Z,99.90
2018-06-19T21:25:58.977Z,99.90
2018-06-19T21:28:27.044Z,99.90
2018-06-19T21:30:55.141Z,99.90
2018-06-19T21:33:23.205Z,99.90
2018-06-19T21:35:51.273Z,99.90
2018-06-19T21:38:19.349Z,99.90
2018-06-19T21:40:47.410Z,99.90
2018-06-19T21:43:15.482Z,99.90
2018-06-19T21:45:43.540Z,99.90
2018-06-19T21:48:11.617Z,99.90
2018-06-19T21:50:39.712Z,99.90
2018-06-19T21:53:07.799Z,99.90
2018-06-19T21:55:35.886Z,99.90
2018-06-19T21:58:03.986Z,99.90
2018-06-19T22:00:32.153Z,99.90
2018-06-19T22:03:00.237Z,99.90
2018-06-19T22:05:28.314Z,99.90
2018-06-19T22:07:56.390Z,99.90
2018-06-19T22:10:24.478Z,99.90
2018-06-19T22:12:52.570Z,99.90
2018-06-19T22:15:20.645Z,99.90
2018-06-19T22:17:48.692Z,99.90
2018-06-19T22:20:16.765Z,99.90
2018-06-19T22:22:44.821Z,99.90
2018-06-19T22:25:12.888Z,99.90
2018-06-19T22:27:40.948Z,99.90
2018-06-19T22:30:09.013Z,99.90
2018-06-19T22:32:37.073Z,99.90
2018-06-19T22:35:05.132Z,99.90
2018-06-19T22:37:33.196Z,99.90
2018-06-19T22:40:01.246Z,99.90
2018-06-19T22:42:29.277Z,99.90
2018-06-19T22:47:25.160Z,99.90
2018-06-19T22:49:53.208Z,99.90
2018-06-19T22:52:21.252Z,99.90
2018-06-19T22:54:49.332Z,99.90
2018-06-19T22:57:17.377Z,99.90
2018-06-19T22:59:45.424Z,99.90
2018-06-19T23:02:13.477Z,99.90
2018-06-19T23:04:41.516Z,99.90
2018-06-19T23:07:09.570Z,99.90
2018-06-19T23:09:37.615Z,99.90
2018-06-19T23:12:05.692Z,99.90
2018-06-19T23:14:33.743Z,99.90
2018-06-19T23:17:01.821Z,99.90
2018-06-19T23:19:29.849Z,99.90
2018-06-19T23:21:57.892Z,99.90
2018-06-19T23:24:25.941Z,99.90
2018-06-19T23:26:53.989Z,99.90
2018-06-19T23:29:22.070Z,99.90
2018-06-19T23:31:50.109Z,99.90
2018-06-19T23:34:18.157Z,99.90
2018-06-19T23:36:46.208Z,99.90
2018-06-19T23:39:14.257Z,99.90
2018-06-19T23:41:42.300Z,99.90
2018-06-19T23:44:10.344Z,99.90
2018-06-19T23:46:38.456Z,99.90
2018-06-19T23:49:06.536Z,99.90
2018-06-19T23:51:34.597Z,99.90
2018-06-19T23:54:02.648Z,99.90
2018-06-19T23:56:30.701Z,99.90
2018-06-19T23:58:58.920Z,99.90
